Terminal Aerodrome Forecast
Issued by NWS Houston/Galveston, TX

Home | Current Version | Previous Version | Text Only | Print | Product List | Glossary On
Versions: 1 2 3 4 5 6 7 8 9 10 11 12 13 14 15 16 17 18 19 20 21 22 23 24 25 26 27 28 29 30 31 32 33 34 35
000
FTUS44 KHGX 250520
TAFGLS
TAF
KGLS 250520Z 2506/2606 19012KT P6SM FEW025 BKN250
     FM250800 18008KT P6SM FEW025 BKN250
     FM251500 17010KT P6SM FEW030 BKN250
     FM260000 16011KT P6SM BKN180=

USA.gov is the U.S. government's official web portal to all federal, state and local government web resources and services.